AFL150 LTFM-URSS
Flight info
| Callsign | AFL150 |
|---|---|
| Flight time | N/A |
| Altitude | 39000 |
| Route | OSMEV UT641 ABSAX UN743 ODIRA/K0867F390 G487 DIRUN DIRUN1K |
| Aircraft | B77W/H-SDE1E2E3FGHIJ2J3J4J5M1RWXY/LB1D1 |
Departure
| Time | 2026-05-01 11:58 |
|---|---|
| Airport | İstanbul Airport (LTFM) |
Arrival
| Time | N/A |
|---|---|
| Airport | Sochi International Airport (URSS) |
| Time | Latitude | Longitude | Altitude | Speed | Heading |
|---|---|---|---|---|---|
| 2026-05-01 11:25 | 41.26647 | 28.73764 | 339 ft | 0 kts | 268° |
| 2026-05-01 11:46 | 41.26648 | 28.73784 | 333 ft | 4 kts | 268° |
| 2026-05-01 11:46 | 41.26649 | 28.73819 | 333 ft | 4 kts | 271° |
| 2026-05-01 11:46 | 41.26646 | 28.73852 | 333 ft | 4 kts | 293° |
| 2026-05-01 11:47 | 41.26637 | 28.73873 | 333 ft | 4 kts | 333° |
| 2026-05-01 11:47 | 41.26623 | 28.73878 | 333 ft | 3 kts | 358° |
| 2026-05-01 11:47 | 41.26596 | 28.73879 | 333 ft | 4 kts | 358° |
| 2026-05-01 11:47 | 41.26590 | 28.73879 | 333 ft | 0 kts | 358° |
| 2026-05-01 11:50 | 41.26648 | 28.73877 | 333 ft | 14 kts | 358° |
| 2026-05-01 11:50 | 41.26726 | 28.73875 | 338 ft | 11 kts | 1° |
| 2026-05-01 11:50 | 41.26800 | 28.73873 | 335 ft | 10 kts | 358° |
| 2026-05-01 11:51 | 41.26803 | 28.73873 | 336 ft | 0 kts | 358° |
| 2026-05-01 11:51 | 41.26805 | 28.73873 | 336 ft | 3 kts | 358° |
| 2026-05-01 11:52 | 41.26864 | 28.73836 | 335 ft | 11 kts | 303° |
| 2026-05-01 11:52 | 41.26874 | 28.73732 | 339 ft | 12 kts | 269° |
| 2026-05-01 11:52 | 41.26872 | 28.73619 | 334 ft | 12 kts | 268° |
| 2026-05-01 11:52 | 41.26870 | 28.73498 | 335 ft | 17 kts | 270° |
| 2026-05-01 11:53 | 41.26869 | 28.73333 | 335 ft | 17 kts | 269° |
| 2026-05-01 11:53 | 41.26867 | 28.73228 | 336 ft | 8 kts | 267° |
| 2026-05-01 11:53 | 41.26866 | 28.73147 | 336 ft | 9 kts | 269° |
| 2026-05-01 11:53 | 41.26866 | 28.73102 | 336 ft | 0 kts | 269° |
| 2026-05-01 11:54 | 41.26865 | 28.73092 | 336 ft | 9 kts | 269° |
| 2026-05-01 11:54 | 41.26841 | 28.72997 | 337 ft | 9 kts | 210° |
| 2026-05-01 11:54 | 41.26775 | 28.72991 | 337 ft | 10 kts | 179° |
| 2026-05-01 11:55 | 41.26702 | 28.72993 | 336 ft | 11 kts | 179° |
| 2026-05-01 11:55 | 41.26622 | 28.72995 | 338 ft | 12 kts | 179° |
| 2026-05-01 11:55 | 41.26521 | 28.72998 | 334 ft | 20 kts | 179° |
| 2026-05-01 11:55 | 41.26392 | 28.73002 | 334 ft | 18 kts | 179° |
| 2026-05-01 11:56 | 41.26325 | 28.73006 | 334 ft | 6 kts | 175° |
| 2026-05-01 11:56 | 41.26295 | 28.73009 | 337 ft | 7 kts | 175° |
| 2026-05-01 11:56 | 41.26233 | 28.72987 | 335 ft | 8 kts | 223° |
| 2026-05-01 11:56 | 41.26227 | 28.72975 | 333 ft | 5 kts | 238° |
| 2026-05-01 11:57 | 41.26213 | 28.72881 | 337 ft | 12 kts | 267° |
| 2026-05-01 11:57 | 41.26213 | 28.72782 | 339 ft | 19 kts | 270° |
| 2026-05-01 11:57 | 41.26216 | 28.72567 | 336 ft | 12 kts | 294° |
| 2026-05-01 11:57 | 41.26310 | 28.72524 | 334 ft | 25 kts | 359° |
| 2026-05-01 11:58 | 41.26722 | 28.72514 | 335 ft | 107 kts | 359° |
| 2026-05-01 11:58 | 41.27724 | 28.72474 | 698 ft | 169 kts | 1° |
| 2026-05-01 11:58 | 41.29999 | 28.72318 | 3495 ft | 162 kts | 3° |
| 2026-05-01 11:59 | 41.31094 | 28.72263 | 4595 ft | 168 kts | 1° |
| 2026-05-01 11:59 | 41.32308 | 28.72244 | 5366 ft | 181 kts | 8° |
| 2026-05-01 11:59 | 41.33660 | 28.72409 | 5818 ft | 210 kts | 8° |
| 2026-05-01 12:00 | 41.36822 | 28.72601 | 7372 ft | 229 kts | 2° |
| 2026-05-01 12:00 | 41.38117 | 28.72429 | 8230 ft | 231 kts | 347° |
| 2026-05-01 12:00 | 41.41353 | 28.70356 | 9551 ft | 267 kts | 332° |
| 2026-05-01 12:01 | 41.43028 | 28.69190 | 10344 ft | 275 kts | 333° |
| 2026-05-01 12:01 | 41.44808 | 28.68072 | 10692 ft | 298 kts | 336° |
| 2026-05-01 12:01 | 41.46798 | 28.66932 | 10909 ft | 323 kts | 336° |
| 2026-05-01 12:01 | 41.48939 | 28.65667 | 11500 ft | 343 kts | 335° |
| 2026-05-01 12:02 | 41.51122 | 28.64313 | 12663 ft | 346 kts | 333° |
| 2026-05-01 12:02 | 41.52557 | 28.63417 | 13367 ft | 343 kts | 334° |
| 2026-05-01 12:02 | 41.54879 | 28.62588 | 14094 ft | 358 kts | 355° |
| 2026-05-01 12:02 | 41.57276 | 28.63048 | 14207 ft | 370 kts | 17° |
| 2026-05-01 12:03 | 41.59506 | 28.64834 | 14226 ft | 379 kts | 39° |
| 2026-05-01 12:03 | 41.61200 | 28.67548 | 14219 ft | 381 kts | 56° |
| 2026-05-01 12:03 | 41.62513 | 28.70570 | 14220 ft | 372 kts | 59° |
| 2026-05-01 12:03 | 41.63778 | 28.73598 | 14223 ft | 378 kts | 58° |
| 2026-05-01 12:04 | 41.65166 | 28.76583 | 14217 ft | 375 kts | 54° |
| 2026-05-01 12:04 | 41.66642 | 28.79447 | 14215 ft | 375 kts | 53° |
| 2026-05-01 12:04 | 41.68134 | 28.82324 | 14226 ft | 380 kts | 54° |
| 2026-05-01 12:04 | 41.69620 | 28.85296 | 14226 ft | 390 kts | 55° |
| 2026-05-01 12:05 | 41.71104 | 28.88371 | 14224 ft | 392 kts | 56° |
| 2026-05-01 12:05 | 41.73865 | 28.94482 | 14225 ft | 373 kts | 62° |
| 2026-05-01 12:05 | 41.74741 | 28.97647 | 15200 ft | 363 kts | 75° |
| 2026-05-01 12:06 | 41.75254 | 29.00999 | 16176 ft | 375 kts | 79° |
| 2026-05-01 12:06 | 41.75670 | 29.04525 | 16949 ft | 383 kts | 81° |
| 2026-05-01 12:06 | 41.76085 | 29.08089 | 17540 ft | 392 kts | 80° |
| 2026-05-01 12:06 | 41.76556 | 29.11702 | 18241 ft | 394 kts | 79° |
| 2026-05-01 12:07 | 41.77082 | 29.15329 | 18763 ft | 402 kts | 78° |
| 2026-05-01 12:07 | 41.77664 | 29.19043 | 19168 ft | 410 kts | 77° |
| 2026-05-01 12:07 | 41.78275 | 29.22771 | 19634 ft | 416 kts | 77° |
| 2026-05-01 12:07 | 41.78912 | 29.26572 | 20098 ft | 421 kts | 77° |
| 2026-05-01 12:08 | 41.79563 | 29.30429 | 20517 ft | 427 kts | 77° |
| 2026-05-01 12:08 | 41.80223 | 29.34348 | 20927 ft | 433 kts | 77° |
| 2026-05-01 12:08 | 41.80885 | 29.38306 | 21334 ft | 438 kts | 77° |
| 2026-05-01 12:08 | 41.81549 | 29.42310 | 21780 ft | 441 kts | 77° |
| 2026-05-01 12:09 | 41.82214 | 29.46341 | 22217 ft | 445 kts | 78° |
| 2026-05-01 12:09 | 41.82883 | 29.50416 | 22635 ft | 449 kts | 78° |
| 2026-05-01 12:09 | 41.83553 | 29.54518 | 23034 ft | 452 kts | 78° |
| 2026-05-01 12:09 | 41.84226 | 29.58654 | 23422 ft | 456 kts | 78° |
| 2026-05-01 12:10 | 41.84904 | 29.62826 | 23790 ft | 460 kts | 78° |
| 2026-05-01 12:10 | 41.86271 | 29.71268 | 24438 ft | 465 kts | 79° |
| 2026-05-01 12:10 | 41.86955 | 29.75509 | 24766 ft | 467 kts | 79° |
| 2026-05-01 12:11 | 41.88335 | 29.84082 | 25354 ft | 472 kts | 79° |
| 2026-05-01 12:11 | 41.89027 | 29.88405 | 25629 ft | 475 kts | 80° |
| 2026-05-01 12:11 | 41.89721 | 29.92747 | 25904 ft | 477 kts | 80° |
| 2026-05-01 12:12 | 41.90418 | 29.97122 | 26176 ft | 480 kts | 80° |
| 2026-05-01 12:12 | 41.91108 | 30.01463 | 26436 ft | 482 kts | 81° |
| 2026-05-01 12:12 | 41.91799 | 30.05831 | 26799 ft | 488 kts | 81° |
| 2026-05-01 12:12 | 41.92506 | 30.10302 | 27604 ft | 489 kts | 81° |
| 2026-05-01 12:13 | 41.93216 | 30.14793 | 28344 ft | 493 kts | 82° |
| 2026-05-01 12:13 | 41.93929 | 30.19321 | 28944 ft | 498 kts | 82° |
| 2026-05-01 12:13 | 41.94648 | 30.23909 | 29514 ft | 504 kts | 83° |
| 2026-05-01 12:13 | 41.95283 | 30.27976 | 30028 ft | 508 kts | 83° |
| 2026-05-01 12:14 | 41.96011 | 30.32646 | 30557 ft | 512 kts | 83° |
| 2026-05-01 12:14 | 41.96741 | 30.37358 | 31009 ft | 517 kts | 83° |
| 2026-05-01 12:14 | 41.97473 | 30.42109 | 31412 ft | 521 kts | 83° |
| 2026-05-01 12:14 | 41.98213 | 30.46908 | 31785 ft | 526 kts | 82° |
| 2026-05-01 12:15 | 41.98959 | 30.51749 | 32179 ft | 529 kts | 82° |
| 2026-05-01 12:15 | 41.99661 | 30.56608 | 32703 ft | 528 kts | 84° |
| 2026-05-01 12:15 | 42.00208 | 30.61465 | 33269 ft | 521 kts | 87° |
| 2026-05-01 12:15 | 42.00531 | 30.66232 | 33387 ft | 517 kts | 91° |
| 2026-05-01 12:16 | 42.00382 | 30.75851 | 33417 ft | 514 kts | 99° |
| 2026-05-01 12:16 | 42.00108 | 30.80678 | 33585 ft | 522 kts | 98° |
| 2026-05-01 12:16 | 41.99943 | 30.85571 | 34114 ft | 523 kts | 95° |
| 2026-05-01 12:17 | 41.99934 | 30.90460 | 34606 ft | 523 kts | 93° |
| 2026-05-01 12:17 | 42.00003 | 30.95360 | 35065 ft | 522 kts | 92° |
| 2026-05-01 12:17 | 42.00164 | 31.00210 | 35297 ft | 518 kts | 89° |
| 2026-05-01 12:17 | 42.00521 | 31.05030 | 35280 ft | 520 kts | 84° |
| 2026-05-01 12:18 | 42.02585 | 31.14466 | 35495 ft | 531 kts | 69° |
| 2026-05-01 12:18 | 42.03994 | 31.18959 | 35707 ft | 526 kts | 68° |
| 2026-05-01 12:18 | 42.05328 | 31.23536 | 35700 ft | 525 kts | 73° |
| 2026-05-01 12:19 | 42.07183 | 31.33002 | 35740 ft | 525 kts | 81° |
| 2026-05-01 12:19 | 42.07915 | 31.37773 | 35940 ft | 529 kts | 81° |
| 2026-05-01 12:19 | 42.08700 | 31.42611 | 36429 ft | 527 kts | 79° |
| 2026-05-01 12:20 | 42.09563 | 31.47397 | 36999 ft | 524 kts | 77° |
| 2026-05-01 12:20 | 42.10499 | 31.52130 | 37489 ft | 523 kts | 76° |
| 2026-05-01 12:20 | 42.11492 | 31.56842 | 37918 ft | 522 kts | 75° |
| 2026-05-01 12:20 | 42.12511 | 31.61537 | 38320 ft | 522 kts | 74° |
| 2026-05-01 12:21 | 42.13532 | 31.66223 | 38732 ft | 521 kts | 74° |
| 2026-05-01 12:21 | 42.14527 | 31.70854 | 39052 ft | 521 kts | 75° |
| 2026-05-01 12:21 | 42.16512 | 31.80328 | 39150 ft | 527 kts | 75° |
| 2026-05-01 12:22 | 42.18457 | 31.89823 | 39157 ft | 522 kts | 75° |
| 2026-05-01 12:22 | 42.20377 | 31.99235 | 39155 ft | 518 kts | 75° |
| 2026-05-01 12:23 | 42.22288 | 32.08606 | 39159 ft | 517 kts | 75° |
| 2026-05-01 12:23 | 42.24180 | 32.17916 | 39159 ft | 517 kts | 76° |
| 2026-05-01 12:24 | 42.26129 | 32.27272 | 39159 ft | 518 kts | 74° |
| 2026-05-01 12:24 | 42.28326 | 32.36545 | 39159 ft | 519 kts | 72° |
| 2026-05-01 12:25 | 42.31623 | 32.50513 | 39154 ft | 521 kts | 75° |
| 2026-05-01 12:26 | 42.33199 | 32.59974 | 39139 ft | 509 kts | 87° |
| 2026-05-01 12:26 | 42.32308 | 32.69360 | 39142 ft | 504 kts | 110° |
| 2026-05-01 12:26 | 42.31346 | 32.73901 | 39153 ft | 501 kts | 108° |
| 2026-05-01 12:27 | 42.29709 | 32.87836 | 39158 ft | 509 kts | 99° |
| 2026-05-01 12:28 | 42.28443 | 33.02276 | 39151 ft | 519 kts | 102° |
| 2026-05-01 12:29 | 42.26728 | 33.16732 | 39150 ft | 519 kts | 103° |
| 2026-05-01 12:29 | 42.24976 | 33.31128 | 39139 ft | 517 kts | 103° |
| 2026-05-01 12:30 | 42.23273 | 33.45461 | 39130 ft | 514 kts | 103° |
| 2026-05-01 12:31 | 42.22131 | 33.54967 | 39132 ft | 513 kts | 103° |
| 2026-05-01 12:31 | 42.20984 | 33.64408 | 39134 ft | 512 kts | 103° |
| 2026-05-01 12:32 | 42.19829 | 33.73902 | 39133 ft | 512 kts | 102° |
| 2026-05-01 12:32 | 42.19250 | 33.83393 | 39115 ft | 508 kts | 89° |
| 2026-05-01 12:32 | 42.19790 | 33.88145 | 39140 ft | 517 kts | 76° |
| 2026-05-01 12:33 | 42.22119 | 33.97332 | 39131 ft | 515 kts | 72° |
| 2026-05-01 12:33 | 42.23908 | 34.06623 | 39145 ft | 513 kts | 81° |
| 2026-05-01 12:34 | 42.25256 | 34.16133 | 39140 ft | 525 kts | 80° |
| 2026-05-01 12:34 | 42.26900 | 34.25806 | 39124 ft | 530 kts | 77° |
| 2026-05-01 12:35 | 42.28719 | 34.35456 | 39122 ft | 531 kts | 77° |
| 2026-05-01 12:35 | 42.30460 | 34.45139 | 39117 ft | 529 kts | 78° |
| 2026-05-01 12:36 | 42.32146 | 34.54805 | 39114 ft | 527 kts | 78° |
| 2026-05-01 12:36 | 42.33769 | 34.64175 | 39109 ft | 525 kts | 78° |
| 2026-05-01 12:37 | 42.35415 | 34.73675 | 39106 ft | 522 kts | 78° |
| 2026-05-01 12:37 | 42.37059 | 34.83178 | 39105 ft | 521 kts | 78° |
| 2026-05-01 12:38 | 42.38703 | 34.92726 | 39105 ft | 521 kts | 78° |
| 2026-05-01 12:38 | 42.40336 | 35.02272 | 39090 ft | 521 kts | 78° |
| 2026-05-01 12:39 | 42.41959 | 35.11812 | 39102 ft | 519 kts | 78° |
| 2026-05-01 12:39 | 42.43570 | 35.21335 | 39092 ft | 518 kts | 78° |
| 2026-05-01 12:40 | 42.45172 | 35.30857 | 39085 ft | 518 kts | 79° |
| 2026-05-01 12:40 | 42.46764 | 35.40365 | 39092 ft | 518 kts | 79° |
| 2026-05-01 12:41 | 42.48349 | 35.49889 | 39095 ft | 519 kts | 79° |
| 2026-05-01 12:41 | 42.49947 | 35.59550 | 39089 ft | 531 kts | 79° |
| 2026-05-01 12:42 | 42.51573 | 35.69432 | 39084 ft | 541 kts | 79° |
| 2026-05-01 12:42 | 42.53208 | 35.79416 | 39089 ft | 544 kts | 79° |
| 2026-05-01 12:43 | 42.54841 | 35.89443 | 39081 ft | 545 kts | 79° |
| 2026-05-01 12:43 | 42.56458 | 35.99439 | 39076 ft | 546 kts | 79° |
| 2026-05-01 12:44 | 42.58076 | 36.09503 | 39072 ft | 545 kts | 79° |
| 2026-05-01 12:45 | 42.61272 | 36.29557 | 39065 ft | 541 kts | 79° |
| 2026-05-01 12:45 | 42.62848 | 36.39537 | 39059 ft | 540 kts | 79° |
| 2026-05-01 12:46 | 42.64413 | 36.49511 | 39058 ft | 539 kts | 79° |
| 2026-05-01 12:46 | 42.65962 | 36.59438 | 39030 ft | 531 kts | 80° |
| 2026-05-01 12:47 | 42.66711 | 36.64245 | 38803 ft | 520 kts | 80° |
| 2026-05-01 12:47 | 42.67450 | 36.69009 | 38487 ft | 511 kts | 80° |
| 2026-05-01 12:47 | 42.68174 | 36.73697 | 38133 ft | 504 kts | 80° |
| 2026-05-01 12:47 | 42.68890 | 36.78347 | 37669 ft | 499 kts | 81° |
| 2026-05-01 12:48 | 42.69597 | 36.82949 | 37143 ft | 496 kts | 81° |
| 2026-05-01 12:48 | 42.70071 | 36.86043 | 36808 ft | 494 kts | 81° |
| 2026-05-01 12:48 | 42.70798 | 36.90541 | 36331 ft | 492 kts | 79° |
| 2026-05-01 12:48 | 42.71680 | 36.95010 | 35878 ft | 487 kts | 76° |
| 2026-05-01 12:49 | 42.72751 | 36.99356 | 35358 ft | 480 kts | 72° |
| 2026-05-01 12:49 | 42.73969 | 37.03558 | 34626 ft | 476 kts | 70° |
| 2026-05-01 12:49 | 42.75324 | 37.07664 | 33809 ft | 475 kts | 68° |
| 2026-05-01 12:49 | 42.76764 | 37.11708 | 33005 ft | 477 kts | 67° |
| 2026-05-01 12:50 | 42.78201 | 37.15768 | 32545 ft | 473 kts | 68° |
| 2026-05-01 12:50 | 42.79571 | 37.19807 | 32237 ft | 465 kts | 69° |
| 2026-05-01 12:50 | 42.80864 | 37.23810 | 31926 ft | 459 kts | 70° |
| 2026-05-01 12:50 | 42.82101 | 37.27801 | 31529 ft | 455 kts | 71° |
| 2026-05-01 12:51 | 42.83302 | 37.31779 | 31089 ft | 453 kts | 71° |
| 2026-05-01 12:51 | 42.84485 | 37.35740 | 30672 ft | 450 kts | 71° |
| 2026-05-01 12:51 | 42.86831 | 37.43585 | 29878 ft | 443 kts | 71° |
| 2026-05-01 12:52 | 42.87994 | 37.47451 | 29459 ft | 440 kts | 71° |
| 2026-05-01 12:52 | 42.90289 | 37.55059 | 28589 ft | 434 kts | 70° |
| 2026-05-01 12:52 | 42.91433 | 37.58853 | 28164 ft | 431 kts | 70° |
| 2026-05-01 12:53 | 42.93693 | 37.66365 | 27348 ft | 425 kts | 70° |
| 2026-05-01 12:53 | 42.94810 | 37.70092 | 26938 ft | 423 kts | 70° |
| 2026-05-01 12:53 | 42.95918 | 37.73791 | 26551 ft | 420 kts | 70° |
| 2026-05-01 12:54 | 42.97022 | 37.77482 | 26154 ft | 418 kts | 70° |
| 2026-05-01 12:54 | 42.99195 | 37.84786 | 25420 ft | 412 kts | 71° |
| 2026-05-01 12:54 | 43.00260 | 37.88411 | 25062 ft | 410 kts | 71° |
| 2026-05-01 12:55 | 43.02367 | 37.95607 | 24325 ft | 405 kts | 71° |
| 2026-05-01 12:55 | 43.03414 | 37.99182 | 23970 ft | 403 kts | 71° |
| 2026-05-01 12:55 | 43.04445 | 38.02734 | 23624 ft | 401 kts | 71° |
| 2026-05-01 12:56 | 43.05463 | 38.06267 | 23238 ft | 398 kts | 71° |
| 2026-05-01 12:56 | 43.06473 | 38.09783 | 22854 ft | 396 kts | 71° |
| 2026-05-01 12:56 | 43.07477 | 38.13278 | 22455 ft | 394 kts | 71° |
| 2026-05-01 12:56 | 43.08465 | 38.16761 | 22061 ft | 389 kts | 74° |
| 2026-05-01 12:57 | 43.09191 | 38.20263 | 21469 ft | 379 kts | 84° |